createdAt,value
2022-07-29T00:01:42.108Z,65.63
2022-07-29T00:04:10.394Z,65.37
2022-07-29T00:06:38.601Z,65.23
2022-07-29T00:09:06.698Z,65.32
2022-07-29T00:11:34.775Z,65.18
2022-07-29T00:14:03.236Z,65.39
2022-07-29T00:16:31.276Z,65.09
2022-07-29T00:19:02.115Z,65.07
2022-07-29T00:21:30.941Z,65.09
2022-07-29T00:23:59.054Z,65.16
2022-07-29T00:26:28.955Z,65.39
2022-07-29T00:29:30.834Z,65.43
2022-07-29T00:31:45.506Z,65.75
2022-07-29T00:34:32.346Z,65.67
2022-07-29T00:37:00.618Z,66.04
2022-07-29T00:39:28.686Z,66.29
2022-07-29T00:41:57.160Z,66.38
2022-07-29T00:44:25.215Z,66.54
2022-07-29T00:46:53.215Z,66.85
2022-07-29T00:49:21.394Z,67.02
2022-07-29T00:51:50.696Z,67.09
2022-07-29T00:54:19.333Z,67.07
2022-07-29T00:56:47.829Z,67.47
2022-07-29T00:59:15.874Z,67.55
2022-07-29T01:01:43.937Z,67.63
2022-07-29T01:04:12.251Z,67.60
2022-07-29T01:06:43.568Z,67.75
2022-07-29T01:09:12.117Z,67.53
2022-07-29T01:11:40.797Z,67.78
2022-07-29T01:14:09.828Z,67.47
2022-07-29T01:16:50.932Z,67.79
2022-07-29T01:19:32.437Z,67.93
2022-07-29T01:22:15.011Z,68.07
2022-07-29T01:24:56.382Z,68.33
2022-07-29T01:27:49.835Z,68.03
2022-07-29T01:30:18.095Z,68.28
2022-07-29T01:32:51.211Z,68.42
2022-07-29T01:35:26.344Z,68.30
2022-07-29T01:38:00.701Z,68.40
2022-07-29T01:40:35.982Z,68.64
2022-07-29T01:43:28.632Z,68.57
2022-07-29T01:46:06.869Z,68.77
2022-07-29T01:48:49.743Z,69.04
2022-07-29T01:51:28.428Z,69.02
2022-07-29T01:54:08.468Z,69.15
2022-07-29T01:56:39.230Z,69.28
2022-07-29T01:59:09.639Z,69.47
2022-07-29T02:01:41.941Z,69.34
2022-07-29T02:04:12.540Z,69.51
2022-07-29T02:07:05.045Z,69.57
2022-07-29T02:09:36.283Z,69.33
2022-07-29T02:12:07.475Z,69.31
2022-07-29T02:14:41.620Z,69.56
2022-07-29T02:17:11.949Z,69.56
2022-07-29T02:19:43.091Z,69.65
2022-07-29T02:22:13.241Z,69.41
2022-07-29T02:24:43.067Z,69.65
2022-07-29T02:27:13.127Z,69.49
2022-07-29T02:29:42.023Z,69.39
2022-07-29T02:32:14.952Z,69.48
2022-07-29T02:34:44.859Z,69.71
2022-07-29T02:37:14.007Z,69.62
2022-07-29T02:39:45.223Z,69.81
2022-07-29T02:42:17.468Z,69.85
2022-07-29T02:44:46.134Z,69.86
2022-07-29T02:47:20.449Z,69.95
2022-07-29T02:50:09.440Z,70.02
2022-07-29T02:52:53.546Z,70.12
2022-07-29T02:55:34.906Z,70.32
2022-07-29T02:58:09.599Z,70.57
2022-07-29T03:00:40.508Z,70.48
2022-07-29T03:03:14.286Z,70.55
2022-07-29T03:05:42.624Z,70.52
2022-07-29T03:08:13.959Z,70.75
2022-07-29T03:10:45.601Z,70.36
2022-07-29T03:13:14.799Z,70.83
2022-07-29T03:15:47.003Z,71.10
2022-07-29T03:18:16.339Z,71.09
2022-07-29T03:20:44.730Z,70.91
2022-07-29T03:23:12.692Z,71.04
2022-07-29T03:25:40.793Z,71.12
2022-07-29T03:28:09.810Z,71.29
2022-07-29T03:30:38.006Z,71.12
2022-07-29T03:33:13.529Z,71.29
2022-07-29T03:35:41.970Z,71.09
2022-07-29T03:38:09.975Z,71.02
2022-07-29T03:40:53.405Z,71.13
2022-07-29T03:43:24.603Z,70.91
2022-07-29T03:45:56.041Z,70.91
2022-07-29T03:48:27.690Z,71.03
2022-07-29T03:50:56.705Z,70.83
2022-07-29T03:53:24.928Z,70.84
2022-07-29T03:55:59.362Z,70.90
2022-07-29T03:58:28.804Z,70.85
2022-07-29T04:00:58.128Z,71.04
2022-07-29T04:03:26.721Z,70.83
2022-07-29T04:06:03.543Z,70.74
2022-07-29T04:08:31.596Z,70.72
2022-07-29T04:11:00.452Z,70.95
2022-07-29T04:13:28.954Z,70.96
2022-07-29T04:15:57.404Z,70.69
2022-07-29T04:18:25.795Z,70.73
2022-07-29T04:20:53.911Z,70.74
2022-07-29T04:23:21.952Z,70.60
2022-07-29T04:25:50.026Z,70.64
2022-07-29T04:28:18.007Z,70.44
2022-07-29T04:30:46.071Z,70.27
2022-07-29T04:33:14.143Z,70.24
2022-07-29T04:35:50.045Z,70.10
2022-07-29T04:38:20.361Z,69.82
2022-07-29T04:40:49.753Z,69.95
2022-07-29T04:43:21.268Z,70.07
2022-07-29T04:45:51.522Z,70.03
2022-07-29T04:48:20.612Z,69.92
2022-07-29T04:50:51.032Z,69.90
2022-07-29T04:53:20.003Z,69.66
2022-07-29T04:55:48.127Z,69.71
2022-07-29T04:58:16.715Z,69.55
2022-07-29T05:00:45.074Z,69.54
2022-07-29T05:03:13.282Z,69.17
2022-07-29T05:05:42.064Z,69.39
2022-07-29T05:08:10.040Z,69.05
2022-07-29T05:10:39.278Z,69.25
2022-07-29T05:13:08.759Z,69.26
2022-07-29T05:15:37.896Z,69.14
2022-07-29T05:18:06.571Z,68.80
2022-07-29T05:20:35.753Z,68.56
2022-07-29T05:23:04.271Z,68.56
2022-07-29T05:25:43.240Z,68.36
2022-07-29T05:28:13.482Z,68.54
2022-07-29T05:30:41.627Z,68.64
2022-07-29T05:33:35.418Z,68.53
2022-07-29T05:36:00.568Z,68.44
2022-07-29T05:38:30.088Z,68.37
2022-07-29T05:41:00.034Z,68.05
2022-07-29T05:43:29.689Z,68.07
2022-07-29T05:45:58.733Z,68.50
2022-07-29T05:48:26.891Z,68.46
2022-07-29T05:50:55.938Z,68.43
2022-07-29T05:53:24.290Z,68.10
2022-07-29T05:55:53.051Z,67.71
2022-07-29T05:58:21.463Z,67.92
2022-07-29T06:00:49.592Z,67.75
2022-07-29T06:03:17.788Z,68.03
2022-07-29T06:05:45.882Z,67.87
2022-07-29T06:08:14.077Z,67.83
2022-07-29T06:10:42.286Z,67.56
2022-07-29T06:13:10.578Z,67.63
2022-07-29T06:15:39.004Z,67.60
2022-07-29T06:18:10.296Z,67.49
2022-07-29T06:20:39.388Z,67.29
2022-07-29T06:23:07.438Z,67.46
2022-07-29T06:25:38.861Z,66.99
2022-07-29T06:28:07.612Z,66.80
2022-07-29T06:30:35.768Z,66.96
2022-07-29T06:33:04.998Z,66.63
2022-07-29T06:35:39.461Z,66.82
2022-07-29T06:38:30.001Z,66.64
2022-07-29T06:41:04.004Z,66.64
2022-07-29T06:43:52.556Z,66.49
2022-07-29T06:46:23.499Z,66.44
2022-07-29T06:48:52.984Z,66.15
2022-07-29T06:51:23.218Z,66.05
2022-07-29T06:54:00.216Z,65.85
2022-07-29T06:56:38.677Z,65.73
2022-07-29T06:59:09.037Z,65.78
2022-07-29T07:01:41.854Z,65.40
2022-07-29T07:04:10.121Z,65.05
2022-07-29T07:06:38.917Z,65.21
2022-07-29T07:09:07.223Z,65.41
2022-07-29T07:11:35.224Z,65.47
2022-07-29T07:14:04.278Z,65.48
2022-07-29T07:16:33.142Z,65.09
2022-07-29T07:19:01.790Z,65.30
2022-07-29T07:21:31.173Z,65.20
2022-07-29T07:24:00.193Z,64.93
2022-07-29T07:26:28.755Z,64.52
2022-07-29T07:28:56.958Z,64.30
2022-07-29T07:31:24.988Z,64.06
2022-07-29T07:33:54.764Z,63.33
2022-07-29T07:36:37.848Z,63.38
2022-07-29T07:39:25.148Z,63.44
2022-07-29T07:41:55.979Z,62.77
2022-07-29T07:44:24.173Z,62.59
2022-07-29T07:46:52.340Z,62.11
2022-07-29T07:49:21.042Z,61.57
2022-07-29T07:51:50.680Z,61.47
2022-07-29T07:54:20.695Z,60.91
2022-07-29T07:56:53.122Z,60.20
2022-07-29T07:59:21.653Z,59.54
2022-07-29T08:01:56.045Z,59.49
2022-07-29T08:04:28.619Z,59.18
2022-07-29T08:06:57.855Z,58.73
2022-07-29T08:09:29.608Z,58.30
2022-07-29T08:11:59.953Z,57.74
2022-07-29T08:14:27.909Z,57.49
2022-07-29T08:16:55.828Z,57.22
2022-07-29T08:19:23.751Z,56.73
2022-07-29T08:21:54.899Z,56.55
2022-07-29T08:24:41.964Z,56.21
2022-07-29T08:27:33.422Z,56.06
2022-07-29T08:30:00.943Z,55.20
2022-07-29T08:32:51.223Z,54.89
2022-07-29T08:35:17.470Z,53.95
2022-07-29T08:37:45.337Z,53.30
2022-07-29T08:40:13.298Z,53.26
2022-07-29T08:42:41.516Z,53.26
2022-07-29T08:45:09.585Z,53.17
2022-07-29T08:47:40.941Z,52.80
2022-07-29T08:50:09.722Z,52.16
2022-07-29T08:52:38.965Z,52.03
2022-07-29T08:55:07.627Z,52.07
2022-07-29T08:57:37.140Z,51.55
2022-07-29T09:00:08.005Z,51.53
2022-07-29T09:02:46.819Z,51.34
2022-07-29T09:05:16.654Z,50.64
2022-07-29T09:07:45.572Z,50.29
2022-07-29T09:10:13.425Z,49.48
2022-07-29T09:12:41.669Z,49.65
2022-07-29T09:15:09.641Z,49.65
2022-07-29T09:17:44.696Z,49.67
2022-07-29T09:20:14.358Z,49.51
2022-07-29T09:22:42.478Z,48.72
2022-07-29T09:25:12.844Z,48.84
2022-07-29T09:27:43.255Z,48.11
2022-07-29T09:30:11.798Z,47.94
2022-07-29T09:32:56.464Z,47.59
2022-07-29T09:35:25.392Z,47.37
2022-07-29T09:37:53.392Z,47.39
2022-07-29T09:40:23.015Z,47.39
2022-07-29T09:42:51.966Z,47.36
2022-07-29T09:45:29.513Z,46.96
2022-07-29T09:48:00.211Z,46.20
2022-07-29T09:50:38.098Z,46.38
2022-07-29T09:53:06.036Z,46.31
2022-07-29T09:55:33.932Z,45.71
2022-07-29T09:58:19.016Z,45.77
2022-07-29T10:00:47.660Z,45.74
2022-07-29T10:03:16.781Z,45.55
2022-07-29T10:05:45.403Z,44.87
2022-07-29T10:08:13.855Z,44.58
2022-07-29T10:10:43.035Z,44.55
2022-07-29T10:13:16.193Z,44.42
2022-07-29T10:15:46.475Z,44.66
2022-07-29T10:18:18.616Z,44.43
2022-07-29T10:20:46.821Z,44.55
2022-07-29T10:23:15.114Z,44.72
2022-07-29T10:25:46.160Z,44.24
2022-07-29T10:28:16.781Z,43.80
2022-07-29T10:30:46.662Z,43.18
2022-07-29T10:33:33.497Z,43.03
2022-07-29T10:36:07.626Z,41.82
2022-07-29T10:38:52.618Z,42.44
2022-07-29T10:41:50.025Z,42.94
2022-07-29T10:44:23.114Z,43.02
2022-07-29T10:46:52.861Z,42.74
2022-07-29T10:49:25.063Z,42.91
2022-07-29T10:51:58.176Z,43.06
2022-07-29T10:54:42.567Z,43.37
2022-07-29T10:57:21.661Z,43.28
2022-07-29T11:00:06.690Z,43.31
2022-07-29T11:02:41.929Z,43.64
2022-07-29T11:05:12.152Z,43.86
2022-07-29T11:07:45.533Z,43.60
2022-07-29T11:10:14.518Z,43.92
2022-07-29T11:12:42.471Z,44.05
2022-07-29T11:15:21.931Z,44.13
2022-07-29T11:17:59.490Z,43.90
2022-07-29T11:20:45.913Z,44.21
2022-07-29T11:23:33.746Z,44.67
2022-07-29T11:29:28.195Z,44.48
2022-07-29T11:32:09.001Z,44.52
2022-07-29T11:34:43.900Z,44.49
2022-07-29T11:37:15.053Z,44.64
2022-07-29T11:40:04.052Z,44.94
2022-07-29T11:42:34.530Z,44.70
2022-07-29T11:45:09.026Z,44.70
2022-07-29T11:47:54.142Z,45.01
2022-07-29T11:50:30.112Z,44.79
2022-07-29T11:52:58.054Z,45.04
2022-07-29T11:55:32.368Z,45.01
2022-07-29T11:58:04.392Z,45.20
2022-07-29T12:00:33.777Z,44.59
2022-07-29T12:03:05.369Z,44.51
2022-07-29T12:05:37.001Z,44.89
2022-07-29T12:08:07.085Z,44.95
2022-07-29T12:10:41.462Z,44.63
2022-07-29T12:13:10.443Z,44.07
2022-07-29T12:15:45.624Z,45.31
2022-07-29T12:18:15.894Z,44.65
2022-07-29T12:20:46.546Z,45.37
2022-07-29T12:23:16.099Z,45.94
2022-07-29T12:25:45.353Z,46.96
2022-07-29T12:28:26.819Z,47.86
2022-07-29T12:30:55.754Z,48.70
2022-07-29T12:33:25.678Z,49.47
2022-07-29T12:36:06.775Z,49.66
2022-07-29T12:38:37.226Z,50.40
2022-07-29T12:41:05.293Z,50.69
2022-07-29T12:43:33.310Z,51.07
2022-07-29T12:46:13.047Z,51.45
2022-07-29T12:48:41.728Z,51.94
2022-07-29T12:51:11.234Z,52.67
2022-07-29T12:53:39.817Z,53.50
2022-07-29T12:56:41.270Z,53.98
2022-07-29T12:59:15.103Z,54.87
2022-07-29T13:01:43.440Z,55.90
2022-07-29T13:04:12.164Z,56.98
2022-07-29T13:06:46.148Z,57.51
2022-07-29T13:09:23.528Z,57.72
2022-07-29T13:11:53.080Z,57.84
2022-07-29T13:14:39.806Z,58.06
2022-07-29T13:17:07.797Z,58.39
2022-07-29T13:19:37.752Z,58.79
2022-07-29T13:22:06.098Z,59.27
2022-07-29T13:24:34.650Z,59.45
2022-07-29T13:27:05.689Z,59.64
2022-07-29T13:29:34.361Z,59.87
2022-07-29T13:32:02.346Z,60.37
2022-07-29T13:34:30.239Z,60.68
2022-07-29T13:36:58.097Z,60.92
2022-07-29T13:39:26.051Z,61.18
2022-07-29T13:41:54.101Z,61.72
2022-07-29T13:44:24.428Z,61.74
2022-07-29T13:46:52.308Z,62.15
2022-07-29T13:49:20.242Z,62.28
2022-07-29T13:51:48.222Z,62.78
2022-07-29T13:54:16.506Z,63.16
2022-07-29T13:56:44.588Z,63.69
2022-07-29T13:59:14.404Z,64.12
2022-07-29T14:01:45.616Z,64.74
2022-07-29T14:04:14.668Z,64.75
2022-07-29T14:06:42.570Z,64.51
2022-07-29T14:09:11.596Z,64.87
2022-07-29T14:11:39.567Z,65.20
2022-07-29T14:14:07.636Z,65.56
2022-07-29T14:16:39.174Z,65.65
2022-07-29T14:19:10.134Z,65.21
2022-07-29T14:21:38.710Z,65.50
2022-07-29T14:24:17.620Z,65.69
2022-07-29T14:26:46.534Z,66.44
2022-07-29T14:29:14.867Z,66.99
2022-07-29T14:31:44.236Z,67.56
2022-07-29T14:34:12.159Z,68.49
2022-07-29T14:36:40.123Z,69.10
2022-07-29T14:39:08.605Z,69.84
2022-07-29T14:41:39.712Z,70.41
2022-07-29T14:44:08.388Z,71.09
2022-07-29T14:46:36.421Z,71.31
2022-07-29T14:49:04.709Z,71.65
2022-07-29T14:51:44.931Z,72.24
2022-07-29T14:54:12.799Z,72.62
2022-07-29T14:56:46.570Z,72.47
2022-07-29T14:59:15.306Z,72.71
2022-07-29T15:01:43.556Z,72.81
2022-07-29T15:04:11.427Z,73.06
2022-07-29T15:06:39.373Z,72.93
2022-07-29T15:09:07.334Z,73.06
2022-07-29T15:11:38.790Z,73.46
2022-07-29T15:14:07.222Z,73.64
2022-07-29T15:16:38.868Z,74.19
2022-07-29T15:19:07.538Z,74.47
2022-07-29T15:21:35.564Z,74.42
2022-07-29T15:24:09.749Z,74.42
2022-07-29T15:26:37.750Z,74.37
2022-07-29T15:29:05.710Z,73.90
2022-07-29T15:31:33.977Z,74.26
2022-07-29T15:34:05.912Z,74.62
2022-07-29T15:36:52.451Z,74.92
2022-07-29T15:39:21.818Z,74.98
2022-07-29T15:41:49.987Z,74.90
2022-07-29T15:44:18.351Z,75.14
2022-07-29T15:47:04.344Z,74.24
2022-07-29T15:49:48.667Z,74.34
2022-07-29T15:52:25.115Z,74.02
2022-07-29T15:54:55.716Z,73.65
2022-07-29T15:57:24.666Z,73.61
2022-07-29T15:59:52.836Z,73.33
2022-07-29T16:02:20.829Z,72.95
2022-07-29T16:04:49.034Z,72.38
2022-07-29T16:07:17.206Z,72.20
2022-07-29T16:09:49.311Z,72.45
2022-07-29T16:12:20.699Z,71.95
2022-07-29T16:14:51.008Z,71.52
2022-07-29T16:17:19.393Z,71.61
2022-07-29T16:19:47.319Z,71.62
2022-07-29T16:22:15.368Z,71.19
2022-07-29T16:24:43.268Z,70.62
2022-07-29T16:27:11.203Z,70.97
2022-07-29T16:29:39.795Z,70.29
2022-07-29T16:32:07.921Z,70.16
2022-07-29T16:34:36.161Z,70.09
2022-07-29T16:37:04.632Z,70.11
2022-07-29T16:39:33.032Z,70.18
2022-07-29T16:42:03.961Z,70.25
2022-07-29T16:44:34.896Z,69.94
2022-07-29T16:47:04.149Z,70.03
2022-07-29T16:49:32.260Z,69.65
2022-07-29T16:52:00.230Z,69.48
2022-07-29T16:54:29.224Z,69.20
2022-07-29T16:56:57.617Z,68.70
2022-07-29T16:59:25.855Z,68.67
2022-07-29T17:01:53.812Z,68.35
2022-07-29T17:04:22.952Z,68.40
2022-07-29T17:06:51.416Z,68.45
2022-07-29T17:09:19.635Z,68.30
2022-07-29T17:11:54.991Z,68.50
2022-07-29T17:14:27.167Z,68.73
2022-07-29T17:17:01.347Z,69.24
2022-07-29T17:19:32.235Z,68.62
2022-07-29T17:22:13.074Z,68.64
2022-07-29T17:24:44.209Z,68.42
2022-07-29T17:27:12.178Z,68.38
2022-07-29T17:29:40.281Z,68.75
2022-07-29T17:32:09.237Z,68.91
2022-07-29T17:34:37.993Z,69.20
2022-07-29T17:37:06.573Z,69.08
2022-07-29T17:39:35.751Z,68.59
2022-07-29T17:42:04.465Z,68.79
2022-07-29T17:44:32.500Z,68.77
2022-07-29T17:47:05.261Z,68.87
2022-07-29T17:49:36.396Z,69.03
2022-07-29T17:52:05.741Z,69.16
2022-07-29T17:54:33.645Z,69.06
2022-07-29T17:57:01.807Z,69.12
2022-07-29T17:59:30.034Z,69.62
2022-07-29T18:01:58.133Z,69.76
2022-07-29T18:04:26.190Z,69.99
2022-07-29T18:06:54.094Z,70.17
2022-07-29T18:09:22.007Z,70.34
2022-07-29T18:11:49.908Z,70.54
2022-07-29T18:14:17.798Z,70.68
2022-07-29T18:16:45.751Z,71.00
2022-07-29T18:19:14.451Z,71.01
2022-07-29T18:21:51.302Z,70.83
2022-07-29T18:24:25.837Z,71.17
2022-07-29T18:26:54.203Z,71.73
2022-07-29T18:29:22.095Z,71.91
2022-07-29T18:31:50.394Z,71.94
2022-07-29T18:34:18.553Z,72.02
2022-07-29T18:36:46.549Z,72.49
2022-07-29T18:39:20.332Z,72.91
2022-07-29T18:41:51.015Z,72.80
2022-07-29T18:44:22.057Z,72.68
2022-07-29T18:46:54.337Z,72.49
2022-07-29T18:49:22.987Z,72.52
2022-07-29T18:51:51.307Z,72.59
2022-07-29T18:54:19.644Z,72.73
2022-07-29T18:56:47.873Z,72.49
2022-07-29T18:59:20.332Z,72.58
2022-07-29T19:01:48.973Z,72.64
2022-07-29T19:04:17.815Z,72.53
2022-07-29T19:06:45.763Z,72.54
2022-07-29T19:09:13.832Z,72.94
2022-07-29T19:11:41.868Z,73.02
2022-07-29T19:14:09.999Z,72.79
2022-07-29T19:16:37.909Z,72.64
2022-07-29T19:19:07.373Z,72.81
2022-07-29T19:21:36.126Z,72.79
2022-07-29T19:24:08.410Z,72.90
2022-07-29T19:26:42.188Z,73.02
2022-07-29T19:29:10.125Z,73.13
2022-07-29T19:31:38.083Z,73.07
2022-07-29T19:34:06.092Z,73.01
2022-07-29T19:36:34.367Z,73.46
2022-07-29T19:39:05.700Z,73.25
2022-07-29T19:41:33.746Z,73.09
2022-07-29T19:44:02.062Z,73.55
2022-07-29T19:46:30.246Z,73.26
2022-07-29T19:48:58.437Z,73.24
2022-07-29T19:51:27.165Z,73.22
2022-07-29T19:53:55.110Z,73.38
2022-07-29T19:56:26.770Z,73.27
2022-07-29T19:58:57.163Z,73.33
2022-07-29T20:01:25.167Z,73.38
2022-07-29T20:03:53.967Z,73.58
2022-07-29T20:06:23.172Z,73.58
2022-07-29T20:08:56.722Z,73.45
2022-07-29T20:11:27.384Z,73.74
2022-07-29T20:13:55.327Z,73.75
2022-07-29T20:16:23.527Z,73.50
2022-07-29T20:18:53.359Z,73.67
2022-07-29T20:21:21.246Z,73.40
2022-07-29T20:23:49.084Z,73.75
2022-07-29T20:26:17.502Z,73.79
2022-07-29T20:28:49.305Z,73.36
2022-07-29T20:31:18.927Z,73.57
2022-07-29T20:33:47.193Z,73.54
2022-07-29T20:36:15.189Z,73.56
2022-07-29T20:38:43.130Z,73.38
2022-07-29T20:41:11.113Z,73.37
2022-07-29T20:43:39.321Z,73.54
2022-07-29T20:46:07.432Z,73.32
2022-07-29T20:48:35.573Z,72.99
2022-07-29T20:51:03.518Z,73.40
2022-07-29T20:53:31.434Z,73.40
2022-07-29T20:55:59.616Z,73.40
2022-07-29T20:58:27.543Z,73.29
2022-07-29T21:00:56.583Z,73.17
2022-07-29T21:03:24.587Z,73.08
2022-07-29T21:05:52.511Z,73.15
2022-07-29T21:08:20.410Z,73.50
2022-07-29T21:10:48.389Z,74.00
2022-07-29T21:13:22.877Z,74.03
2022-07-29T21:15:51.895Z,74.16
2022-07-29T21:18:33.133Z,74.38
2022-07-29T21:21:01.401Z,74.08
2022-07-29T21:23:30.254Z,74.09
2022-07-29T21:25:58.121Z,74.34
2022-07-29T21:28:41.548Z,74.35
2022-07-29T21:31:11.311Z,74.47
2022-07-29T21:33:43.960Z,74.45
2022-07-29T21:36:46.011Z,74.52
2022-07-29T21:39:07.026Z,74.67
2022-07-29T21:41:35.173Z,74.85
2022-07-29T21:44:03.130Z,74.68
2022-07-29T21:46:31.261Z,74.91
2022-07-29T21:48:59.310Z,74.77
2022-07-29T21:51:27.218Z,74.85
2022-07-29T21:53:55.133Z,74.73
2022-07-29T21:56:27.645Z,74.83
2022-07-29T21:58:55.993Z,75.01
2022-07-29T22:01:24.339Z,74.85
2022-07-29T22:03:52.258Z,74.87
2022-07-29T22:06:20.817Z,74.56
2022-07-29T22:08:48.776Z,74.54
2022-07-29T22:11:16.656Z,74.70
2022-07-29T22:13:44.567Z,74.84
2022-07-29T22:16:15.117Z,74.40
2022-07-29T22:18:46.975Z,74.38
2022-07-29T22:21:15.364Z,74.91
2022-07-29T22:23:43.369Z,75.13
2022-07-29T22:26:11.312Z,74.90
2022-07-29T22:28:39.164Z,75.04
2022-07-29T22:31:08.562Z,75.03
2022-07-29T22:33:36.443Z,75.02
2022-07-29T22:36:04.385Z,74.57
2022-07-29T22:38:32.254Z,74.58
2022-07-29T22:41:01.320Z,74.49
2022-07-29T22:43:29.640Z,74.33
2022-07-29T22:45:57.624Z,74.36
2022-07-29T22:48:25.780Z,74.50
2022-07-29T22:50:53.644Z,74.42
2022-07-29T22:53:21.504Z,74.39
2022-07-29T22:55:49.460Z,74.21
2022-07-29T22:58:17.291Z,74.30
2022-07-29T23:00:45.171Z,74.42
2022-07-29T23:03:12.970Z,74.19
2022-07-29T23:05:40.936Z,73.79
2022-07-29T23:08:08.790Z,73.20
2022-07-29T23:10:36.696Z,73.30
2022-07-29T23:13:04.706Z,73.11
2022-07-29T23:15:32.876Z,73.01
2022-07-29T23:18:01.153Z,72.92
2022-07-29T23:20:28.988Z,72.83
2022-07-29T23:22:56.929Z,72.91
2022-07-29T23:25:24.875Z,72.98
2022-07-29T23:27:52.696Z,72.81
2022-07-29T23:30:20.564Z,72.38
2022-07-29T23:32:48.381Z,72.70
2022-07-29T23:35:16.337Z,72.68
2022-07-29T23:37:44.337Z,72.53
2022-07-29T23:40:14.405Z,72.47
2022-07-29T23:42:43.430Z,72.62
2022-07-29T23:45:12.337Z,72.42
2022-07-29T23:47:40.936Z,72.52
2022-07-29T23:50:09.769Z,72.90
2022-07-29T23:52:38.135Z,72.86
2022-07-29T23:55:36.610Z,73.01
2022-07-29T23:57:54.785Z,72.99
